createdAt,value
2022-12-18T00:00:54.516Z,6.50
2022-12-18T00:02:56.928Z,6.60
2022-12-18T00:04:58.598Z,6.68
2022-12-18T00:07:01.544Z,6.57
2022-12-18T00:09:04.328Z,7.20
2022-12-18T00:11:07.018Z,6.90
2022-12-18T00:13:10.173Z,7.80
2022-12-18T00:15:12.071Z,7.18
2022-12-18T00:17:13.670Z,8.13
2022-12-18T00:19:15.913Z,7.47
2022-12-18T00:21:17.851Z,8.50
2022-12-18T00:23:20.742Z,8.23
2022-12-18T00:25:22.379Z,7.93
2022-12-18T00:27:23.927Z,8.50
2022-12-18T00:29:25.558Z,8.45
2022-12-18T00:31:27.272Z,8.70
2022-12-18T00:33:29.207Z,8.35
2022-12-18T00:35:30.717Z,8.07
2022-12-18T00:37:33.885Z,7.53
2022-12-18T00:39:36.969Z,8.07
2022-12-18T00:41:38.704Z,7.82
2022-12-18T00:43:41.139Z,8.80
2022-12-18T00:45:42.842Z,8.50
2022-12-18T00:47:44.475Z,8.85
2022-12-18T00:49:46.016Z,9.73
2022-12-18T00:51:48.228Z,7.75
2022-12-18T00:53:49.884Z,7.45
2022-12-18T00:55:52.842Z,8.13
2022-12-18T00:57:54.446Z,8.43
2022-12-18T00:59:56.076Z,7.95
2022-12-18T01:01:57.745Z,8.45
2022-12-18T01:04:00.810Z,7.85
2022-12-18T01:06:07.333Z,8.73
2022-12-18T01:08:08.996Z,8.20
2022-12-18T01:10:12.315Z,7.30
2022-12-18T01:12:15.409Z,8.88
2022-12-18T01:14:17.014Z,8.23
2022-12-18T01:16:18.932Z,8.13
2022-12-18T01:18:20.514Z,8.10
2022-12-18T01:20:22.059Z,7.18
2022-12-18T01:22:23.767Z,7.72
2022-12-18T01:24:25.403Z,7.82
2022-12-18T01:26:27.823Z,8.07
2022-12-18T01:28:30.764Z,7.68
2022-12-18T01:30:32.312Z,7.82
2022-12-18T01:32:34.073Z,6.95
2022-12-18T01:34:36.329Z,7.53
2022-12-18T01:36:39.479Z,7.55
2022-12-18T01:38:44.074Z,7.45
2022-12-18T01:40:45.602Z,7.50
2022-12-18T01:42:53.753Z,7.68
2022-12-18T01:47:00.535Z,6.72
2022-12-18T01:51:05.626Z,7.32
2022-12-18T01:53:13.729Z,7.55
2022-12-18T01:55:19.299Z,7.05
2022-12-18T01:57:21.168Z,7.93
2022-12-18T02:01:26.942Z,8.50
2022-12-18T02:03:28.599Z,9.13
2022-12-18T02:05:41.084Z,9.30
2022-12-18T02:07:52.000Z,8.50
2022-12-18T02:09:59.962Z,9.15
2022-12-18T02:12:06.709Z,8.55
2022-12-18T02:14:19.031Z,8.38
2022-12-18T02:16:31.139Z,8.23
2022-12-18T02:18:38.155Z,7.70
2022-12-18T02:20:46.094Z,8.02
2022-12-18T02:23:05.420Z,8.48
2022-12-18T02:25:19.647Z,8.05
2022-12-18T02:27:22.768Z,9.40
2022-12-18T02:29:27.000Z,8.95
2022-12-18T02:31:32.316Z,8.40
2022-12-18T02:33:36.567Z,9.07
2022-12-18T02:35:41.017Z,8.60
2022-12-18T02:37:44.839Z,8.40
2022-12-18T02:39:49.643Z,9.02
2022-12-18T02:41:51.695Z,10.10
2022-12-18T02:43:57.407Z,9.32
2022-12-18T02:46:00.664Z,8.38
2022-12-18T02:48:02.348Z,7.70
2022-12-18T02:50:10.877Z,7.40
2022-12-18T02:52:25.723Z,7.20
2022-12-18T02:54:56.363Z,7.82
2022-12-18T02:57:05.380Z,7.85
2022-12-18T02:59:14.291Z,9.05
2022-12-18T03:01:20.702Z,8.18
2022-12-18T03:03:27.971Z,8.45
2022-12-18T03:05:34.331Z,8.00
2022-12-18T03:07:39.890Z,8.10
2022-12-18T03:09:47.282Z,8.48
2022-12-18T03:11:55.573Z,9.27
2022-12-18T03:13:59.409Z,10.00
2022-12-18T03:16:04.311Z,9.73
2022-12-18T03:18:11.715Z,10.05
2022-12-18T03:20:20.930Z,9.13
2022-12-18T03:22:24.831Z,9.57
2022-12-18T03:24:28.814Z,9.45
2022-12-18T03:26:31.018Z,10.20
2022-12-18T03:28:37.830Z,9.63
2022-12-18T03:30:42.580Z,11.10
2022-12-18T03:32:51.488Z,10.05
2022-12-18T03:34:56.822Z,9.98
2022-12-18T03:37:03.668Z,10.20
2022-12-18T03:39:05.377Z,9.20
2022-12-18T03:41:15.684Z,9.25
2022-12-18T03:43:26.488Z,9.50
2022-12-18T03:45:35.197Z,9.52
2022-12-18T03:47:48.738Z,10.77
2022-12-18T03:49:58.871Z,10.20
2022-12-18T03:52:05.611Z,11.07
2022-12-18T03:54:09.594Z,11.40
2022-12-18T03:56:14.392Z,12.38
2022-12-18T03:58:20.245Z,11.70
2022-12-18T04:00:21.976Z,11.55
2022-12-18T04:02:25.408Z,13.80
2022-12-18T04:04:29.348Z,12.38
2022-12-18T04:06:32.950Z,12.85
2022-12-18T04:08:35.420Z,12.48
2022-12-18T04:10:37.395Z,11.93
2022-12-18T04:12:39.114Z,13.65
2022-12-18T04:14:40.874Z,12.23
2022-12-18T04:16:42.373Z,11.95
2022-12-18T04:18:43.896Z,11.98
2022-12-18T04:20:45.498Z,12.02
2022-12-18T04:22:49.081Z,10.93
2022-12-18T04:24:50.616Z,11.52
2022-12-18T04:26:52.221Z,10.23
2022-12-18T04:28:53.877Z,11.48
2022-12-18T04:30:55.502Z,10.65
2022-12-18T04:32:57.203Z,9.48
2022-12-18T04:34:58.725Z,11.48
2022-12-18T04:37:00.300Z,10.77
2022-12-18T04:39:03.407Z,9.93
2022-12-18T04:41:05.144Z,10.05
2022-12-18T04:43:06.749Z,9.30
2022-12-18T04:45:09.333Z,9.07
2022-12-18T04:47:10.884Z,10.40
2022-12-18T04:49:12.415Z,9.98
2022-12-18T04:51:14.258Z,8.90
2022-12-18T04:55:18.582Z,8.27
2022-12-18T04:57:20.101Z,9.77
2022-12-18T04:59:21.690Z,9.65
2022-12-18T05:01:23.343Z,9.73
2022-12-18T05:03:25.087Z,9.20
2022-12-18T05:05:26.812Z,9.95
2022-12-18T05:07:28.387Z,9.50
2022-12-18T05:09:30.514Z,11.05
2022-12-18T05:11:33.555Z,10.88
2022-12-18T05:13:36.460Z,10.25
2022-12-18T05:15:38.272Z,9.98
2022-12-18T05:17:39.841Z,10.80
2022-12-18T05:19:41.525Z,10.85
2022-12-18T05:21:43.092Z,11.48
2022-12-18T05:23:44.934Z,10.93
2022-12-18T05:25:48.756Z,10.90
2022-12-18T05:27:51.799Z,10.98
2022-12-18T05:29:53.332Z,10.88
2022-12-18T05:31:54.926Z,11.85
2022-12-18T05:33:56.527Z,11.32
2022-12-18T05:35:59.923Z,11.63
2022-12-18T05:38:01.556Z,11.30
2022-12-18T05:40:03.534Z,12.35
2022-12-18T05:42:05.124Z,12.10
2022-12-18T05:44:08.013Z,12.45
2022-12-18T05:46:13.784Z,12.77
2022-12-18T05:48:15.586Z,12.40
2022-12-18T05:50:22.998Z,11.68
2022-12-18T05:52:24.816Z,12.55
2022-12-18T05:56:29.455Z,12.20
2022-12-18T05:58:31.925Z,11.68
2022-12-18T06:00:36.943Z,11.15
2022-12-18T06:02:38.602Z,11.82
2022-12-18T06:04:40.165Z,11.85
2022-12-18T06:06:41.740Z,12.10
2022-12-18T06:08:46.380Z,12.52
2022-12-18T06:10:51.812Z,12.32
2022-12-18T06:12:53.333Z,12.07
2022-12-18T06:14:54.868Z,11.75
2022-12-18T06:16:57.775Z,11.85
2022-12-18T06:19:00.271Z,12.50
2022-12-18T06:21:02.123Z,13.43
2022-12-18T06:23:04.385Z,11.93
2022-12-18T06:25:07.090Z,12.10
2022-12-18T06:27:09.526Z,11.93
2022-12-18T06:29:11.071Z,11.65
2022-12-18T06:31:12.869Z,12.43
2022-12-18T06:35:17.780Z,10.52
2022-12-18T06:37:19.948Z,13.00
2022-12-18T06:39:21.527Z,11.40
2022-12-18T06:41:23.088Z,11.27
2022-12-18T06:43:24.774Z,10.82
2022-12-18T06:45:26.523Z,11.40
2022-12-18T06:47:31.794Z,10.70
2022-12-18T06:49:34.728Z,11.00
2022-12-18T06:51:36.735Z,10.00
2022-12-18T06:53:38.734Z,10.88
2022-12-18T06:55:40.535Z,11.30
2022-12-18T06:57:43.114Z,9.20
2022-12-18T06:59:44.638Z,9.45
2022-12-18T07:01:46.329Z,9.60
2022-12-18T07:03:52.028Z,8.55
2022-12-18T07:05:54.991Z,8.77
2022-12-18T07:07:56.650Z,8.13
2022-12-18T07:09:58.143Z,9.38
2022-12-18T07:11:59.837Z,9.68
2022-12-18T07:14:01.375Z,8.65
2022-12-18T07:16:17.117Z,8.25
2022-12-18T07:18:20.267Z,8.52
2022-12-18T07:20:21.767Z,8.18
2022-12-18T07:22:26.071Z,8.55
2022-12-18T07:24:27.706Z,8.10
2022-12-18T07:26:29.227Z,8.05
2022-12-18T07:28:30.889Z,8.40
2022-12-18T07:30:32.487Z,7.47
2022-12-18T07:32:33.950Z,8.80
2022-12-18T07:34:35.713Z,8.65
2022-12-18T07:36:37.540Z,8.35
2022-12-18T07:38:40.781Z,10.02
2022-12-18T07:40:42.274Z,8.20
2022-12-18T07:42:43.863Z,9.43
2022-12-18T07:44:45.379Z,8.55
2022-12-18T07:46:46.902Z,8.45
2022-12-18T07:48:49.273Z,9.00
2022-12-18T07:50:51.774Z,9.10
2022-12-18T07:52:53.293Z,7.50
2022-12-18T07:54:56.175Z,8.43
2022-12-18T07:56:57.676Z,8.57
2022-12-18T07:59:00.110Z,7.85
2022-12-18T08:01:06.236Z,8.73
2022-12-18T08:03:07.929Z,8.65
2022-12-18T08:05:09.921Z,8.27
2022-12-18T08:07:11.425Z,8.77
2022-12-18T08:09:13.068Z,8.15
2022-12-18T08:11:15.960Z,8.25
2022-12-18T08:13:17.783Z,8.60
2022-12-18T08:17:21.067Z,8.80
2022-12-18T08:19:22.667Z,8.98
2022-12-18T08:21:26.407Z,7.90
2022-12-18T08:23:39.299Z,10.45
2022-12-18T08:25:43.858Z,11.52
2022-12-18T08:27:46.737Z,9.07
2022-12-18T08:29:48.239Z,8.95
2022-12-18T08:31:49.875Z,8.95
2022-12-18T08:33:52.576Z,7.78
2022-12-18T08:35:54.107Z,7.93
2022-12-18T08:37:55.657Z,9.00
2022-12-18T08:39:57.301Z,7.63
2022-12-18T08:41:58.969Z,9.10
2022-12-18T08:44:02.181Z,8.18
2022-12-18T08:46:03.900Z,8.65
2022-12-18T08:48:05.974Z,7.93
2022-12-18T08:50:08.083Z,9.25
2022-12-18T08:52:09.626Z,8.43
2022-12-18T08:54:12.921Z,9.23
2022-12-18T08:56:15.433Z,7.38
2022-12-18T08:58:17.005Z,8.15
2022-12-18T09:00:20.165Z,9.60
2022-12-18T09:02:21.912Z,8.60
2022-12-18T09:06:25.152Z,7.55
2022-12-18T09:08:26.687Z,9.23
2022-12-18T09:10:28.434Z,8.38
2022-12-18T09:12:30.224Z,7.68
2022-12-18T09:16:35.413Z,7.65
2022-12-18T09:18:37.304Z,8.68
2022-12-18T09:20:39.759Z,8.43
2022-12-18T09:22:41.640Z,9.20
2022-12-18T09:24:43.201Z,8.73
2022-12-18T09:26:47.411Z,8.57
2022-12-18T09:28:49.410Z,7.57
2022-12-18T09:32:54.317Z,8.20
2022-12-18T09:34:55.929Z,7.70
2022-12-18T09:36:57.790Z,8.35
2022-12-18T09:39:01.665Z,7.95
2022-12-18T09:41:26.770Z,8.32
2022-12-18T09:43:34.210Z,8.10
2022-12-18T09:45:41.776Z,8.02
2022-12-18T09:47:53.451Z,7.55
2022-12-18T09:50:02.026Z,7.00
2022-12-18T09:52:09.594Z,8.18
2022-12-18T09:54:18.555Z,6.68
2022-12-18T09:56:22.268Z,8.45
2022-12-18T09:58:30.488Z,7.25
2022-12-18T10:00:32.100Z,8.25
2022-12-18T10:02:33.827Z,7.63
2022-12-18T10:06:45.702Z,7.25
2022-12-18T10:08:55.282Z,7.82
2022-12-18T10:11:02.137Z,7.22
2022-12-18T10:13:12.973Z,8.35
2022-12-18T10:15:21.345Z,8.40
2022-12-18T10:17:36.403Z,8.52
2022-12-18T10:19:42.102Z,8.07
2022-12-18T10:21:52.278Z,8.40
2022-12-18T10:24:05.017Z,9.02
2022-12-18T10:26:08.185Z,8.23
2022-12-18T10:28:13.645Z,8.25
2022-12-18T10:30:23.465Z,7.88
2022-12-18T10:32:27.240Z,8.38
2022-12-18T10:34:28.817Z,8.93
2022-12-18T10:36:31.850Z,7.78
2022-12-18T10:38:35.504Z,8.73
2022-12-18T10:40:51.280Z,8.65
2022-12-18T10:43:05.347Z,9.07
2022-12-18T10:45:15.237Z,8.68
2022-12-18T10:47:20.003Z,8.15
2022-12-18T10:49:27.532Z,8.27
2022-12-18T10:51:33.750Z,9.25
2022-12-18T10:53:37.932Z,9.90
2022-12-18T10:55:45.354Z,9.75
2022-12-18T10:57:46.925Z,8.52
2022-12-18T10:59:53.386Z,8.45
2022-12-18T11:01:56.822Z,9.20
2022-12-18T11:04:08.523Z,9.60
2022-12-18T11:06:12.857Z,10.27
2022-12-18T11:08:22.215Z,8.30
2022-12-18T11:10:30.830Z,8.05
2022-12-18T11:12:32.375Z,9.02
2022-12-18T11:14:46.724Z,8.60
2022-12-18T11:17:24.200Z,8.70
2022-12-18T11:19:22.373Z,8.07
2022-12-18T11:21:24.474Z,7.97
2022-12-18T11:23:27.441Z,8.55
2022-12-18T11:25:34.654Z,8.25
2022-12-18T11:27:38.649Z,7.53
2022-12-18T11:29:46.417Z,8.18
2022-12-18T11:31:48.349Z,8.52
2022-12-18T11:36:16.566Z,7.38
2022-12-18T11:38:23.402Z,8.23
2022-12-18T11:40:31.041Z,7.40
2022-12-18T11:42:39.383Z,9.10
2022-12-18T11:44:49.150Z,9.20
2022-12-18T11:46:56.108Z,7.47
2022-12-18T11:49:02.295Z,7.75
2022-12-18T11:51:10.389Z,8.88
2022-12-18T11:53:12.863Z,8.25
2022-12-18T11:55:16.475Z,8.05
2022-12-18T11:57:32.907Z,8.10
2022-12-18T11:59:44.711Z,7.60
2022-12-18T12:01:52.585Z,7.22
2022-12-18T12:04:22.159Z,7.88
2022-12-18T12:06:32.363Z,7.90
2022-12-18T12:08:50.091Z,8.00
2022-12-18T12:11:03.140Z,7.70
2022-12-18T12:13:39.413Z,7.43
2022-12-18T12:15:55.067Z,8.20
2022-12-18T12:18:11.065Z,6.90
2022-12-18T12:20:21.219Z,8.90
2022-12-18T12:22:32.407Z,8.15
2022-12-18T12:24:46.014Z,8.25
2022-12-18T12:26:56.647Z,7.63
2022-12-18T12:29:09.205Z,8.43
2022-12-18T12:31:26.920Z,8.35
2022-12-18T12:33:38.570Z,7.47
2022-12-18T12:35:48.564Z,8.35
2022-12-18T12:38:02.456Z,8.13
2022-12-18T12:40:26.836Z,8.43
2022-12-18T12:42:33.726Z,8.27
2022-12-18T12:44:44.155Z,7.80
2022-12-18T12:46:49.521Z,7.97
2022-12-18T12:48:54.685Z,8.73
2022-12-18T12:50:57.826Z,8.38
2022-12-18T12:53:01.706Z,8.48
2022-12-18T12:55:13.082Z,8.05
2022-12-18T12:57:20.512Z,7.72
2022-12-18T12:59:32.907Z,8.35
2022-12-18T13:01:42.629Z,8.05
2022-12-18T13:04:02.362Z,9.52
2022-12-18T13:06:12.346Z,8.55
2022-12-18T13:08:24.444Z,8.45
2022-12-18T13:10:33.498Z,8.25
2022-12-18T13:12:35.413Z,8.52
2022-12-18T13:14:39.355Z,8.55
2022-12-18T13:16:41.028Z,8.75
2022-12-18T13:18:52.454Z,8.48
2022-12-18T13:21:20.330Z,8.05
2022-12-18T13:23:31.821Z,8.43
2022-12-18T13:25:36.370Z,8.77
2022-12-18T13:28:05.014Z,8.65
2022-12-18T13:30:57.751Z,7.57
2022-12-18T13:34:02.101Z,7.45
2022-12-18T13:36:14.914Z,8.80
2022-12-18T13:38:22.827Z,8.40
2022-12-18T13:40:56.620Z,8.60
2022-12-18T13:42:59.044Z,8.85
2022-12-18T13:45:01.137Z,9.57
2022-12-18T13:47:04.336Z,8.90
2022-12-18T13:49:18.310Z,9.10
2022-12-18T13:51:22.429Z,8.98
2022-12-18T13:53:27.251Z,8.07
2022-12-18T13:55:29.580Z,10.25
2022-12-18T13:57:34.016Z,9.25
2022-12-18T13:59:36.850Z,10.23
2022-12-18T14:01:43.468Z,11.43
2022-12-18T14:03:45.090Z,10.82
2022-12-18T14:05:55.935Z,10.77
2022-12-18T14:08:02.644Z,10.45
2022-12-18T14:10:42.199Z,11.57
2022-12-18T14:12:28.740Z,11.65
2022-12-18T14:14:33.566Z,11.88
2022-12-18T14:16:35.967Z,11.90
2022-12-18T14:18:45.242Z,11.70
2022-12-18T14:20:52.827Z,12.55
2022-12-18T14:22:55.422Z,10.68
2022-12-18T14:25:19.113Z,11.57
2022-12-18T14:27:24.250Z,12.45
2022-12-18T14:29:27.715Z,12.05
2022-12-18T14:31:31.979Z,11.65
2022-12-18T14:33:33.722Z,11.32
2022-12-18T14:35:37.209Z,11.82
2022-12-18T14:37:39.986Z,11.63
2022-12-18T14:39:41.678Z,10.88
2022-12-18T14:41:44.574Z,10.43
2022-12-18T14:43:47.688Z,11.27
2022-12-18T14:45:49.726Z,10.57
2022-12-18T14:47:51.424Z,9.95
2022-12-18T14:49:53.045Z,10.57
2022-12-18T14:51:56.058Z,10.18
2022-12-18T14:54:00.264Z,9.35
2022-12-18T14:56:11.183Z,9.10
2022-12-18T14:58:16.262Z,8.60
2022-12-18T15:00:20.915Z,8.60
2022-12-18T15:02:25.017Z,8.80
2022-12-18T15:04:29.344Z,8.43
2022-12-18T15:06:33.865Z,9.05
2022-12-18T15:08:37.686Z,8.50
2022-12-18T15:10:48.453Z,8.82
2022-12-18T15:12:51.246Z,8.63
2022-12-18T15:14:54.282Z,7.18
2022-12-18T15:16:57.287Z,8.55
2022-12-18T15:18:58.870Z,7.22
2022-12-18T15:21:09.294Z,8.25
2022-12-18T15:23:15.782Z,8.52
2022-12-18T15:25:30.274Z,7.55
2022-12-18T15:27:33.764Z,7.05
2022-12-18T15:29:35.341Z,7.88
2022-12-18T15:31:38.230Z,7.78
2022-12-18T15:33:41.956Z,7.32
2022-12-18T15:35:47.181Z,7.05
2022-12-18T15:37:49.597Z,8.25
2022-12-18T15:39:51.067Z,7.55
2022-12-18T15:41:52.888Z,7.95
2022-12-18T15:43:54.624Z,8.85
2022-12-18T15:45:56.251Z,7.97
2022-12-18T15:47:59.608Z,7.13
2022-12-18T15:50:01.255Z,7.43
2022-12-18T15:52:03.362Z,6.40
2022-12-18T15:54:09.880Z,7.88
2022-12-18T15:56:12.159Z,11.52
2022-12-18T15:58:14.480Z,10.68
2022-12-18T16:00:18.335Z,7.47
2022-12-18T16:02:21.012Z,7.13
2022-12-18T16:04:24.035Z,7.80
2022-12-18T16:06:25.606Z,7.47
2022-12-18T16:08:27.166Z,7.10
2022-12-18T16:10:29.251Z,8.02
2022-12-18T16:12:31.003Z,7.15
2022-12-18T16:14:33.401Z,7.82
2022-12-18T16:16:35.157Z,8.10
2022-12-18T16:18:36.723Z,6.97
2022-12-18T16:20:40.176Z,7.63
2022-12-18T16:22:42.593Z,8.63
2022-12-18T16:24:44.254Z,8.68
2022-12-18T16:26:46.243Z,8.68
2022-12-18T16:30:50.323Z,6.88
2022-12-18T16:32:51.999Z,8.18
2022-12-18T16:34:53.566Z,8.85
2022-12-18T16:37:03.339Z,7.88
2022-12-18T16:39:07.027Z,8.93
2022-12-18T16:41:18.890Z,7.85
2022-12-18T16:43:20.509Z,9.30
2022-12-18T16:45:23.420Z,7.15
2022-12-18T16:47:24.981Z,9.40
2022-12-18T16:49:26.526Z,7.53
2022-12-18T16:51:28.655Z,7.88
2022-12-18T16:53:32.722Z,7.28
2022-12-18T16:55:34.846Z,7.20
2022-12-18T16:57:36.483Z,7.45
2022-12-18T16:59:38.060Z,7.50
2022-12-18T17:01:39.963Z,8.52
2022-12-18T17:03:41.921Z,8.43
2022-12-18T17:05:51.507Z,8.18
2022-12-18T17:07:54.641Z,8.35
2022-12-18T17:09:57.607Z,8.27
2022-12-18T17:12:02.339Z,9.02
2022-12-18T17:14:07.065Z,8.65
2022-12-18T17:16:09.764Z,9.70
2022-12-18T17:18:11.479Z,9.68
2022-12-18T17:20:13.166Z,10.07
2022-12-18T17:22:14.751Z,9.32
2022-12-18T17:24:16.655Z,8.30
2022-12-18T17:26:20.524Z,9.18
2022-12-18T17:28:22.104Z,10.55
2022-12-18T17:30:23.643Z,9.35
2022-12-18T17:32:25.191Z,8.50
2022-12-18T17:34:26.810Z,9.00
2022-12-18T17:36:28.376Z,9.25
2022-12-18T17:38:30.178Z,9.32
2022-12-18T17:40:33.388Z,8.98
2022-12-18T17:42:36.659Z,9.00
2022-12-18T17:44:38.274Z,9.35
2022-12-18T17:46:39.917Z,10.48
2022-12-18T17:48:41.699Z,9.13
2022-12-18T17:50:43.340Z,9.15
2022-12-18T17:52:44.895Z,9.20
2022-12-18T17:54:46.529Z,9.00
2022-12-18T17:56:48.922Z,9.20
2022-12-18T17:58:51.995Z,9.23
2022-12-18T18:00:53.855Z,10.18
2022-12-18T18:04:57.115Z,8.20
2022-12-18T18:06:58.729Z,9.32
2022-12-18T18:09:00.327Z,8.70
2022-12-18T18:11:05.050Z,9.30
2022-12-18T18:13:17.447Z,9.50
2022-12-18T18:15:20.411Z,9.60
2022-12-18T18:17:21.969Z,8.98
2022-12-18T18:19:24.870Z,9.48
2022-12-18T18:21:26.950Z,9.45
2022-12-18T18:23:28.897Z,10.95
2022-12-18T18:25:30.579Z,9.02
2022-12-18T18:27:38.248Z,11.00
2022-12-18T18:29:40.311Z,8.90
2022-12-18T18:31:43.277Z,9.90
2022-12-18T18:33:45.039Z,9.90
2022-12-18T18:35:54.763Z,10.68
2022-12-18T18:37:56.512Z,9.93
2022-12-18T18:39:58.326Z,9.70
2022-12-18T18:41:59.932Z,9.88
2022-12-18T18:44:01.713Z,10.45
2022-12-18T18:46:05.285Z,10.32
2022-12-18T18:48:08.298Z,11.02
2022-12-18T18:50:10.212Z,9.85
2022-12-18T18:54:13.066Z,10.10
2022-12-18T18:56:45.336Z,9.20
2022-12-18T18:58:38.404Z,10.27
2022-12-18T19:02:41.729Z,10.18
2022-12-18T19:04:46.279Z,9.57
2022-12-18T19:06:48.568Z,9.77
2022-12-18T19:08:51.140Z,10.23
2022-12-18T19:10:57.678Z,12.30
2022-12-18T19:12:59.626Z,9.85
2022-12-18T19:15:01.356Z,11.07
2022-12-18T19:17:03.382Z,10.90
2022-12-18T19:19:06.232Z,10.20
2022-12-18T19:21:10.755Z,10.32
2022-12-18T19:23:12.300Z,11.85
2022-12-18T19:25:13.908Z,9.90
2022-12-18T19:27:15.454Z,11.38
2022-12-18T19:29:17.080Z,11.63
2022-12-18T19:31:24.443Z,11.57
2022-12-18T19:33:43.254Z,9.50
2022-12-18T19:35:45.391Z,11.75
2022-12-18T19:37:48.464Z,12.07
2022-12-18T19:39:50.279Z,10.73
2022-12-18T19:41:51.913Z,10.35
2022-12-18T19:43:53.880Z,9.77
2022-12-18T19:45:56.220Z,10.43
2022-12-18T19:48:02.624Z,10.60
2022-12-18T19:50:07.404Z,10.45
2022-12-18T19:52:09.420Z,10.07
2022-12-18T19:54:16.655Z,11.00
2022-12-18T19:56:21.611Z,11.35
2022-12-18T19:58:23.124Z,10.60
2022-12-18T20:00:26.357Z,10.45
2022-12-18T20:02:28.193Z,11.38
2022-12-18T20:04:30.070Z,10.07
2022-12-18T20:06:34.398Z,10.80
2022-12-18T20:08:36.000Z,10.20
2022-12-18T20:10:39.079Z,10.50
2022-12-18T20:12:40.693Z,11.10
2022-12-18T20:14:42.199Z,10.25
2022-12-18T20:16:44.469Z,9.50
2022-12-18T20:18:46.707Z,9.95
2022-12-18T20:20:48.655Z,10.93
2022-12-18T20:22:52.296Z,9.77
2022-12-18T20:24:53.950Z,9.80
2022-12-18T20:26:57.304Z,9.80
2022-12-18T20:28:59.767Z,9.05
2022-12-18T20:33:03.548Z,8.95
2022-12-18T20:37:07.140Z,8.45
2022-12-18T20:41:15.856Z,8.60
2022-12-18T20:43:18.995Z,9.48
2022-12-18T20:45:20.648Z,9.93
2022-12-18T20:47:22.171Z,9.82
2022-12-18T20:49:25.589Z,9.05
2022-12-18T20:51:27.323Z,9.15
2022-12-18T20:53:29.037Z,10.00
2022-12-18T20:55:30.871Z,10.10
2022-12-18T20:57:32.586Z,9.57
2022-12-18T20:59:35.590Z,9.57
2022-12-18T21:01:37.421Z,10.15
2022-12-18T21:03:42.928Z,9.55
2022-12-18T21:05:44.712Z,9.27
2022-12-18T21:07:46.392Z,9.80
2022-12-18T21:09:47.972Z,9.80
2022-12-18T21:11:49.824Z,10.25
2022-12-18T21:13:51.520Z,9.95
2022-12-18T21:15:54.802Z,9.70
2022-12-18T21:17:56.476Z,9.00
2022-12-18T21:21:59.889Z,8.75
2022-12-18T21:24:01.730Z,8.07
2022-12-18T21:26:15.966Z,9.10
2022-12-18T21:28:17.556Z,9.40
2022-12-18T21:30:19.130Z,9.30
2022-12-18T21:32:22.421Z,9.63
2022-12-18T21:34:28.793Z,10.52
2022-12-18T21:36:31.502Z,8.90
2022-12-18T21:38:33.477Z,8.57
2022-12-18T21:42:38.219Z,9.30
2022-12-18T21:44:41.980Z,8.82
2022-12-18T21:46:48.987Z,9.82
2022-12-18T21:48:56.142Z,9.55
2022-12-18T21:50:57.809Z,9.50
2022-12-18T21:52:59.648Z,10.30
2022-12-18T21:55:07.946Z,9.57
2022-12-18T21:57:10.775Z,10.07
2022-12-18T22:01:15.156Z,7.63
2022-12-18T22:03:19.245Z,10.13
2022-12-18T22:05:22.417Z,9.93
2022-12-18T22:07:23.925Z,10.40
2022-12-18T22:09:27.485Z,10.05
2022-12-18T22:11:29.156Z,9.80
2022-12-18T22:13:30.793Z,9.18
2022-12-18T22:15:32.868Z,10.10
2022-12-18T22:17:34.589Z,9.88
2022-12-18T22:19:42.511Z,9.15
2022-12-18T22:21:47.541Z,10.05
2022-12-18T22:23:52.679Z,9.23
2022-12-18T22:25:54.456Z,9.82
2022-12-18T22:27:56.068Z,9.60
2022-12-18T22:29:57.638Z,9.98
2022-12-18T22:31:59.310Z,9.43
2022-12-18T22:34:01.023Z,9.55
2022-12-18T22:36:05.601Z,9.30
2022-12-18T22:38:09.190Z,9.32
2022-12-18T22:40:23.721Z,10.15
2022-12-18T22:42:25.695Z,8.93
2022-12-18T22:44:27.263Z,9.50
2022-12-18T22:46:32.663Z,9.00
2022-12-18T22:48:34.233Z,8.38
2022-12-18T22:50:35.795Z,9.48
2022-12-18T22:52:37.385Z,9.25
2022-12-18T22:54:40.302Z,8.63
2022-12-18T22:56:42.594Z,8.77
2022-12-18T22:58:46.998Z,9.75
2022-12-18T23:00:48.533Z,9.15
2022-12-18T23:02:54.436Z,9.15
2022-12-18T23:04:59.362Z,9.00
2022-12-18T23:07:00.925Z,8.55
2022-12-18T23:09:02.431Z,9.65
2022-12-18T23:11:05.748Z,9.70
2022-12-18T23:13:07.413Z,8.88
2022-12-18T23:15:09.660Z,9.23
2022-12-18T23:17:11.274Z,9.70
2022-12-18T23:19:12.824Z,8.23
2022-12-18T23:21:17.550Z,8.30
2022-12-18T23:23:20.142Z,8.82
2022-12-18T23:25:21.882Z,8.18
2022-12-18T23:27:24.845Z,8.70
2022-12-18T23:29:26.712Z,8.05
2022-12-18T23:31:30.294Z,8.48
2022-12-18T23:33:31.947Z,8.45
2022-12-18T23:35:34.437Z,7.63
2022-12-18T23:37:58.693Z,7.90
2022-12-18T23:39:57.505Z,8.50
2022-12-18T23:41:59.089Z,8.68
2022-12-18T23:44:01.976Z,8.30
2022-12-18T23:46:09.455Z,8.98
2022-12-18T23:48:11.262Z,8.68
2022-12-18T23:50:12.819Z,8.05
2022-12-18T23:54:16.301Z,8.13
2022-12-18T23:56:20.785Z,8.60
2022-12-18T23:58:22.328Z,9.70
